createdAt,value
2023-01-29T00:01:57.781Z,0.74
2023-01-29T00:04:24.441Z,0.73
2023-01-29T00:06:50.925Z,0.89
2023-01-29T00:09:17.904Z,0.72
2023-01-29T00:11:44.881Z,0.89
2023-01-29T00:14:11.385Z,0.74
2023-01-29T00:16:37.978Z,0.68
2023-01-29T00:19:04.555Z,0.64
2023-01-29T00:21:32.239Z,0.65
2023-01-29T00:23:59.798Z,0.68
2023-01-29T00:26:27.292Z,0.55
2023-01-29T00:28:54.515Z,0.65
2023-01-29T00:31:23.618Z,0.59
2023-01-29T00:33:51.013Z,0.60
2023-01-29T00:36:19.237Z,0.50
2023-01-29T00:38:58.449Z,0.46
2023-01-29T00:41:48.988Z,0.66
2023-01-29T00:44:34.401Z,0.59
2023-01-29T00:47:01.051Z,0.54
2023-01-29T00:49:27.625Z,0.70
2023-01-29T00:52:12.487Z,0.70
2023-01-29T00:54:39.065Z,0.57
2023-01-29T00:57:05.651Z,0.51
2023-01-29T00:59:32.169Z,0.51
2023-01-29T01:02:17.564Z,0.38
2023-01-29T01:04:44.177Z,0.46
2023-01-29T01:09:56.101Z,0.57
2023-01-29T01:12:23.085Z,0.40
2023-01-29T01:14:49.861Z,0.58
2023-01-29T01:17:16.573Z,0.61
2023-01-29T01:19:43.307Z,0.48
2023-01-29T01:22:10.053Z,0.46
2023-01-29T01:24:37.342Z,0.40
2023-01-29T01:27:05.031Z,0.35
2023-01-29T01:29:31.586Z,0.36
2023-01-29T01:31:58.138Z,0.33
2023-01-29T01:34:26.964Z,0.39
2023-01-29T01:36:54.433Z,0.42
2023-01-29T01:39:20.982Z,0.45
2023-01-29T01:41:47.456Z,0.42
2023-01-29T01:44:52.859Z,0.50
2023-01-29T01:47:40.469Z,0.51
2023-01-29T01:50:33.043Z,0.37
2023-01-29T01:53:13.028Z,0.41
2023-01-29T01:55:45.757Z,0.39
2023-01-29T01:58:18.267Z,0.39
2023-01-29T02:00:45.061Z,0.40
2023-01-29T02:03:31.650Z,0.31
2023-01-29T02:06:18.928Z,0.36
2023-01-29T02:09:11.908Z,0.39
2023-01-29T02:11:38.860Z,0.36
2023-01-29T02:14:05.499Z,0.47
2023-01-29T02:16:35.376Z,0.40
2023-01-29T02:19:08.909Z,0.49
2023-01-29T02:22:00.262Z,0.42
2023-01-29T02:24:48.981Z,0.26
2023-01-29T02:27:21.966Z,0.23
2023-01-29T02:30:03.289Z,0.28
2023-01-29T02:32:54.275Z,0.43
2023-01-29T02:35:32.090Z,0.31
2023-01-29T02:37:58.733Z,0.45
2023-01-29T02:40:41.337Z,0.44
2023-01-29T02:43:14.208Z,0.32
2023-01-29T02:45:50.497Z,0.27
2023-01-29T02:48:23.797Z,0.25
2023-01-29T02:51:00.593Z,0.37
2023-01-29T02:53:53.324Z,0.28
2023-01-29T02:56:34.017Z,0.31
2023-01-29T02:59:10.136Z,0.40
2023-01-29T03:01:45.083Z,0.35
2023-01-29T03:04:17.824Z,0.30
2023-01-29T03:06:54.379Z,0.33
2023-01-29T03:09:30.124Z,0.32
2023-01-29T03:12:19.939Z,0.32
2023-01-29T03:15:09.093Z,0.40
2023-01-29T03:17:45.005Z,0.50
2023-01-29T03:20:17.612Z,0.53
2023-01-29T03:22:50.503Z,0.50
2023-01-29T03:25:38.476Z,0.53
2023-01-29T03:28:26.571Z,0.39
2023-01-29T03:31:18.656Z,0.37
2023-01-29T03:34:16.383Z,0.42
2023-01-29T03:36:57.876Z,0.53
2023-01-29T03:39:28.429Z,0.52
2023-01-29T03:42:01.257Z,0.55
2023-01-29T03:44:40.290Z,0.55
2023-01-29T03:47:32.649Z,0.54
2023-01-29T03:50:02.298Z,0.55
2023-01-29T03:52:45.909Z,0.43
2023-01-29T03:55:33.387Z,0.33
2023-01-29T03:58:18.089Z,0.38
2023-01-29T04:01:23.108Z,0.42
2023-01-29T04:04:12.020Z,0.50
2023-01-29T04:06:42.414Z,0.52
2023-01-29T04:09:22.172Z,0.54
2023-01-29T04:11:55.823Z,0.43
2023-01-29T04:14:23.124Z,0.42
2023-01-29T04:16:55.602Z,0.42
2023-01-29T04:19:40.026Z,0.53
2023-01-29T04:22:14.207Z,0.55
2023-01-29T04:24:42.250Z,0.56
2023-01-29T04:27:36.400Z,0.46
2023-01-29T04:30:31.314Z,0.45
2023-01-29T04:33:13.498Z,0.41
2023-01-29T04:35:42.986Z,0.54
2023-01-29T04:38:37.395Z,0.57
2023-01-29T04:41:18.844Z,0.49
2023-01-29T04:43:54.477Z,0.48
2023-01-29T04:46:41.932Z,0.48
2023-01-29T04:49:35.839Z,0.48
2023-01-29T04:52:16.827Z,0.56
2023-01-29T04:55:17.239Z,0.50
2023-01-29T04:58:03.170Z,0.46
2023-01-29T05:00:39.097Z,0.53
2023-01-29T05:03:09.645Z,0.44
2023-01-29T05:05:36.675Z,0.39
2023-01-29T05:08:04.726Z,0.53
2023-01-29T05:10:31.376Z,0.41
2023-01-29T05:13:06.384Z,0.44
2023-01-29T05:15:39.766Z,0.40
2023-01-29T05:18:09.032Z,0.51
2023-01-29T05:20:41.092Z,0.55
2023-01-29T05:23:19.834Z,0.48
2023-01-29T05:25:47.986Z,0.47
2023-01-29T05:28:17.327Z,0.47
2023-01-29T05:30:46.408Z,0.48
2023-01-29T05:33:21.785Z,0.49
2023-01-29T05:35:49.155Z,0.58
2023-01-29T05:38:16.664Z,0.46
2023-01-29T05:40:43.998Z,0.48
2023-01-29T05:43:16.723Z,0.57
2023-01-29T05:45:43.782Z,0.47
2023-01-29T05:48:10.272Z,0.49
2023-01-29T05:50:36.751Z,0.48
2023-01-29T05:53:03.360Z,0.58
2023-01-29T05:55:29.885Z,0.47
2023-01-29T05:57:56.427Z,0.49
2023-01-29T06:00:23.373Z,0.50
2023-01-29T06:02:50.294Z,0.50
2023-01-29T06:05:16.875Z,0.48
2023-01-29T06:07:45.206Z,0.51
2023-01-29T06:10:14.503Z,0.52
2023-01-29T06:12:42.532Z,0.48
2023-01-29T06:15:10.057Z,0.52
2023-01-29T06:17:36.521Z,0.53
2023-01-29T06:20:04.088Z,0.54
2023-01-29T06:22:30.612Z,0.53
2023-01-29T06:24:57.068Z,0.55
2023-01-29T06:27:23.566Z,0.57
2023-01-29T06:29:50.045Z,0.64
2023-01-29T06:32:16.646Z,0.67
2023-01-29T06:34:43.141Z,0.60
2023-01-29T06:37:09.673Z,0.69
2023-01-29T06:39:36.170Z,0.58
2023-01-29T06:42:02.696Z,0.68
2023-01-29T06:44:29.354Z,0.57
2023-01-29T06:46:55.832Z,0.57
2023-01-29T06:49:22.424Z,0.58
2023-01-29T06:51:48.957Z,0.67
2023-01-29T06:54:15.496Z,0.59
2023-01-29T06:56:42.021Z,0.59
2023-01-29T06:59:08.508Z,0.58
2023-01-29T07:01:36.607Z,0.54
2023-01-29T07:04:03.906Z,0.55
2023-01-29T07:06:31.105Z,0.58
2023-01-29T07:08:57.715Z,0.55
2023-01-29T07:11:24.405Z,0.57
2023-01-29T07:13:50.858Z,0.57
2023-01-29T07:16:19.102Z,0.58
2023-01-29T07:18:45.713Z,0.59
2023-01-29T07:21:12.238Z,0.58
2023-01-29T07:23:38.715Z,0.59
2023-01-29T07:26:06.186Z,0.58
2023-01-29T07:28:37.810Z,0.59
2023-01-29T07:31:05.046Z,0.60
2023-01-29T07:33:31.705Z,0.60
2023-01-29T07:35:58.228Z,0.60
2023-01-29T07:38:24.777Z,0.60
2023-01-29T07:40:54.149Z,0.57
2023-01-29T07:43:20.900Z,0.60
2023-01-29T07:45:47.490Z,0.60
2023-01-29T07:48:14.127Z,0.60
2023-01-29T07:50:41.312Z,0.59
2023-01-29T07:53:13.335Z,0.71
2023-01-29T07:55:39.723Z,0.74
2023-01-29T07:58:06.497Z,0.66
2023-01-29T08:00:33.041Z,0.64
2023-01-29T08:03:16.292Z,0.62
2023-01-29T08:05:43.947Z,0.74
2023-01-29T08:08:10.606Z,0.64
2023-01-29T08:10:38.463Z,0.66
2023-01-29T08:13:06.094Z,0.66
2023-01-29T08:15:32.987Z,0.65
2023-01-29T08:18:01.616Z,0.66
2023-01-29T08:20:28.336Z,0.67
2023-01-29T08:23:06.914Z,0.69
2023-01-29T08:25:34.418Z,0.68
2023-01-29T08:28:01.617Z,0.63
2023-01-29T08:30:30.718Z,0.67
2023-01-29T08:32:57.304Z,0.77
2023-01-29T08:35:24.321Z,0.71
2023-01-29T08:37:59.486Z,0.79
2023-01-29T08:40:27.647Z,0.72
2023-01-29T08:43:02.720Z,0.73
2023-01-29T08:45:30.900Z,0.72
2023-01-29T08:47:57.443Z,0.81
2023-01-29T08:50:24.037Z,0.75
2023-01-29T08:52:50.673Z,0.78
2023-01-29T08:55:17.616Z,0.75
2023-01-29T08:57:44.275Z,0.77
2023-01-29T09:00:11.783Z,0.86
2023-01-29T09:02:38.428Z,0.82
2023-01-29T09:05:05.462Z,0.83
2023-01-29T09:07:32.066Z,0.86
2023-01-29T09:09:58.619Z,0.88
2023-01-29T09:12:25.280Z,0.95
2023-01-29T09:14:51.796Z,0.99
2023-01-29T09:17:18.416Z,0.93
2023-01-29T09:19:44.913Z,0.95
2023-01-29T09:22:12.017Z,0.95
2023-01-29T09:24:38.846Z,0.95
2023-01-29T09:27:06.198Z,0.97
2023-01-29T09:29:34.765Z,0.98
2023-01-29T09:32:03.270Z,0.98
2023-01-29T09:34:29.800Z,1.02
2023-01-29T09:36:56.345Z,1.07
2023-01-29T09:39:22.895Z,1.03
2023-01-29T09:42:03.535Z,1.11
2023-01-29T09:45:17.566Z,1.11
2023-01-29T09:47:44.689Z,1.09
2023-01-29T09:50:20.172Z,1.16
2023-01-29T09:53:26.290Z,1.16
2023-01-29T09:56:08.946Z,1.23
2023-01-29T09:58:38.341Z,1.17
2023-01-29T10:01:26.406Z,1.21
2023-01-29T10:04:22.271Z,1.25
2023-01-29T10:07:01.449Z,1.22
2023-01-29T10:09:57.324Z,1.30
2023-01-29T10:12:38.839Z,1.27
2023-01-29T10:15:14.253Z,1.34
2023-01-29T10:18:11.650Z,1.36
2023-01-29T10:20:52.924Z,1.37
2023-01-29T10:23:30.851Z,1.37
2023-01-29T10:25:58.134Z,1.39
2023-01-29T10:28:48.427Z,1.33
2023-01-29T10:31:25.171Z,1.31
2023-01-29T10:34:02.126Z,1.35
2023-01-29T10:36:49.750Z,1.38
2023-01-29T10:39:18.808Z,1.42
2023-01-29T10:41:45.281Z,1.39
2023-01-29T10:44:39.881Z,1.43
2023-01-29T10:47:44.668Z,1.50
2023-01-29T10:50:40.116Z,1.46
2023-01-29T10:53:24.536Z,1.43
2023-01-29T10:56:21.776Z,1.46
2023-01-29T10:58:59.328Z,1.45
2023-01-29T11:01:26.807Z,1.51
2023-01-29T11:04:02.176Z,1.58
2023-01-29T11:06:31.238Z,1.61
2023-01-29T11:09:16.481Z,1.61
2023-01-29T11:11:54.022Z,1.59
2023-01-29T11:14:22.441Z,1.61
2023-01-29T11:16:49.196Z,1.68
2023-01-29T11:19:16.523Z,1.73
2023-01-29T11:22:01.727Z,1.70
2023-01-29T11:24:28.469Z,1.68
2023-01-29T11:26:58.675Z,1.70
2023-01-29T11:29:45.859Z,1.74
2023-01-29T11:32:24.346Z,1.73
2023-01-29T11:35:06.162Z,1.84
2023-01-29T11:37:37.990Z,1.85
2023-01-29T11:40:19.606Z,1.87
2023-01-29T11:42:47.357Z,1.92
2023-01-29T11:45:19.754Z,1.87
2023-01-29T11:47:50.228Z,1.83
2023-01-29T11:50:25.730Z,1.89
2023-01-29T11:52:52.736Z,1.98
2023-01-29T11:55:26.043Z,1.92
2023-01-29T11:58:04.262Z,1.96
2023-01-29T12:00:36.409Z,1.97
2023-01-29T12:03:19.913Z,2.00
2023-01-29T12:06:27.109Z,2.07
2023-01-29T12:09:01.868Z,2.03
2023-01-29T12:11:33.559Z,2.04
2023-01-29T12:14:02.368Z,2.05
2023-01-29T12:16:44.289Z,2.00
2023-01-29T12:19:29.919Z,1.97
2023-01-29T12:22:08.710Z,2.05
2023-01-29T12:24:52.845Z,2.05
2023-01-29T12:27:36.066Z,2.06
2023-01-29T12:30:22.560Z,2.08
2023-01-29T12:32:51.976Z,2.11
2023-01-29T12:35:35.642Z,2.15
2023-01-29T12:38:28.229Z,2.16
2023-01-29T12:41:32.451Z,2.11
2023-01-29T12:44:31.655Z,2.14
2023-01-29T12:47:00.866Z,2.06
2023-01-29T12:49:35.095Z,2.14
2023-01-29T12:52:11.157Z,2.19
2023-01-29T12:54:39.434Z,2.11
2023-01-29T12:57:15.848Z,2.16
2023-01-29T12:59:58.624Z,2.11
2023-01-29T13:02:48.202Z,2.15
2023-01-29T13:05:34.087Z,2.14
2023-01-29T13:08:08.619Z,2.20
2023-01-29T13:10:41.164Z,2.21
2023-01-29T13:13:32.956Z,2.14
2023-01-29T13:16:01.206Z,2.15
2023-01-29T13:18:50.415Z,2.16
2023-01-29T13:21:20.970Z,2.16
2023-01-29T13:23:53.122Z,2.15
2023-01-29T13:26:21.178Z,2.17
2023-01-29T13:28:49.287Z,2.17
2023-01-29T13:31:37.584Z,2.17
2023-01-29T13:34:24.720Z,2.16
2023-01-29T13:36:54.305Z,2.20
2023-01-29T13:39:35.847Z,2.23
2023-01-29T13:42:14.774Z,2.30
2023-01-29T13:44:41.485Z,2.23
2023-01-29T13:47:11.597Z,2.30
2023-01-29T14:24:33.863Z,2.25
2023-01-29T14:27:00.395Z,2.23
2023-01-29T14:29:35.464Z,2.25
2023-01-29T14:32:20.283Z,2.25
2023-01-29T14:34:52.046Z,2.19
2023-01-29T14:37:36.130Z,2.30
2023-01-29T14:40:11.513Z,2.33
2023-01-29T14:42:45.039Z,2.31
2023-01-29T14:45:29.706Z,2.37
2023-01-29T14:48:11.477Z,2.40
2023-01-29T14:50:45.735Z,2.42
2023-01-29T14:53:51.342Z,2.44
2023-01-29T14:56:20.795Z,2.44
2023-01-29T14:58:56.147Z,2.47
2023-01-29T15:01:32.417Z,2.47
2023-01-29T15:04:07.215Z,2.53
2023-01-29T15:06:49.515Z,2.50
2023-01-29T15:09:49.628Z,2.52
2023-01-29T15:12:29.816Z,2.55
2023-01-29T15:15:07.084Z,2.57
2023-01-29T15:17:49.498Z,2.55
2023-01-29T15:20:31.337Z,2.55
2023-01-29T15:22:58.295Z,2.48
2023-01-29T15:25:25.420Z,2.57
2023-01-29T15:27:54.611Z,2.61
2023-01-29T15:30:32.439Z,2.58
2023-01-29T15:32:59.379Z,2.56
2023-01-29T15:35:37.649Z,2.60
2023-01-29T15:38:06.795Z,2.61
2023-01-29T15:40:34.488Z,2.60
2023-01-29T15:43:00.969Z,2.57
2023-01-29T15:45:32.705Z,2.59
2023-01-29T15:48:08.475Z,2.56
2023-01-29T15:50:39.526Z,2.58
2023-01-29T15:53:12.429Z,2.63
2023-01-29T15:55:40.173Z,2.60
2023-01-29T15:58:13.258Z,2.58
2023-01-29T16:00:39.729Z,2.59
2023-01-29T16:03:15.790Z,2.60
2023-01-29T16:05:42.592Z,2.58
2023-01-29T16:08:13.860Z,2.58
2023-01-29T16:10:42.160Z,2.58
2023-01-29T16:13:22.273Z,2.66
2023-01-29T16:16:00.745Z,2.60
2023-01-29T16:18:35.261Z,2.61
2023-01-29T16:21:31.650Z,2.60
2023-01-29T16:24:07.601Z,2.60
2023-01-29T16:26:37.578Z,2.59
2023-01-29T16:29:09.364Z,2.53
2023-01-29T16:31:37.677Z,2.60
2023-01-29T16:34:14.871Z,2.58
2023-01-29T16:36:46.490Z,2.53
2023-01-29T16:39:23.928Z,2.57
2023-01-29T16:42:12.891Z,2.64
2023-01-29T16:44:40.561Z,2.60
2023-01-29T16:47:20.326Z,2.60
2023-01-29T16:49:51.049Z,2.56
2023-01-29T16:52:19.156Z,2.59
2023-01-29T16:54:45.712Z,2.58
2023-01-29T16:57:18.525Z,2.57
2023-01-29T16:59:46.071Z,2.54
2023-01-29T17:02:41.814Z,2.63
2023-01-29T17:05:17.757Z,2.60
2023-01-29T17:07:46.347Z,2.61
2023-01-29T17:10:19.681Z,2.60
2023-01-29T17:12:54.617Z,2.60
2023-01-29T17:15:34.929Z,2.61
2023-01-29T17:18:01.841Z,2.53
2023-01-29T17:20:30.404Z,2.59
2023-01-29T17:22:56.958Z,2.57
2023-01-29T17:25:23.701Z,2.59
2023-01-29T17:27:52.154Z,2.57
2023-01-29T17:30:26.307Z,2.60
2023-01-29T17:32:52.988Z,2.59
2023-01-29T17:35:20.293Z,2.59
2023-01-29T17:37:47.297Z,2.58
2023-01-29T17:40:34.142Z,2.59
2023-01-29T17:43:00.633Z,2.59
2023-01-29T17:45:27.547Z,2.61
2023-01-29T17:47:54.155Z,2.61
2023-01-29T17:50:30.187Z,2.61
2023-01-29T17:52:56.755Z,2.63
2023-01-29T17:55:23.826Z,2.64
2023-01-29T17:57:50.374Z,2.62
2023-01-29T18:00:20.074Z,2.60
2023-01-29T18:02:47.097Z,2.60
2023-01-29T18:05:16.507Z,2.68
2023-01-29T18:07:45.893Z,2.63
2023-01-29T18:10:21.013Z,2.66
2023-01-29T18:12:47.866Z,2.64
2023-01-29T18:15:14.545Z,2.62
2023-01-29T18:17:41.848Z,2.66
2023-01-29T18:20:26.217Z,2.67
2023-01-29T18:22:53.173Z,2.63
2023-01-29T18:25:20.381Z,2.68
2023-01-29T18:27:47.529Z,2.68
2023-01-29T18:30:14.397Z,2.66
2023-01-29T18:32:41.044Z,2.67
2023-01-29T18:35:08.285Z,2.65
2023-01-29T18:37:35.162Z,2.67
2023-01-29T18:40:01.773Z,2.64
2023-01-29T18:42:31.322Z,2.64
2023-01-29T18:44:57.869Z,2.65
2023-01-29T18:47:25.469Z,2.64
2023-01-29T18:49:52.061Z,2.66
2023-01-29T18:52:18.863Z,2.67
2023-01-29T18:54:45.469Z,2.64
2023-01-29T18:58:24.220Z,2.65
2023-01-29T18:59:58.634Z,2.67
2023-01-29T19:02:25.350Z,2.67
2023-01-29T19:04:51.968Z,2.63
2023-01-29T19:07:18.549Z,2.66
2023-01-29T19:09:46.509Z,2.66
2023-01-29T19:12:13.026Z,2.66
2023-01-29T19:14:39.686Z,2.65
2023-01-29T19:17:06.323Z,2.66
2023-01-29T19:19:33.078Z,2.64
2023-01-29T19:21:59.680Z,2.60
2023-01-29T19:24:27.452Z,2.66
2023-01-29T19:26:54.149Z,2.62
2023-01-29T19:29:20.740Z,2.65
2023-01-29T19:31:47.550Z,2.68
2023-01-29T19:34:14.199Z,2.69
2023-01-29T19:36:40.955Z,2.67
2023-01-29T19:39:07.475Z,2.68
2023-01-29T19:41:34.871Z,2.70
2023-01-29T19:44:01.422Z,2.67
2023-01-29T19:46:30.167Z,2.68
2023-01-29T19:48:58.742Z,2.69
2023-01-29T19:51:27.603Z,2.72
2023-01-29T19:53:55.387Z,2.71
2023-01-29T19:56:21.988Z,2.73
2023-01-29T19:58:48.593Z,2.75
2023-01-29T20:01:18.312Z,2.72
2023-01-29T20:03:48.927Z,2.75
2023-01-29T20:06:18.014Z,2.76
2023-01-29T20:08:47.828Z,2.78
2023-01-29T20:11:19.640Z,2.75
2023-01-29T20:13:48.006Z,2.76
2023-01-29T20:16:14.692Z,2.85
2023-01-29T20:18:41.248Z,2.90
2023-01-29T20:21:10.922Z,2.83
2023-01-29T20:23:41.196Z,2.83
2023-01-29T20:26:11.134Z,2.84
2023-01-29T20:28:38.106Z,2.81
2023-01-29T20:31:06.385Z,2.78
2023-01-29T20:33:33.820Z,2.85
2023-01-29T20:36:03.617Z,2.87
2023-01-29T20:38:31.775Z,2.91
2023-01-29T20:41:12.772Z,2.88
2023-01-29T20:43:39.478Z,2.86
2023-01-29T20:46:06.615Z,2.94
2023-01-29T20:48:33.501Z,2.96
2023-01-29T20:51:05.438Z,2.96
2023-01-29T20:53:31.936Z,3.02
2023-01-29T20:55:58.770Z,2.98
2023-01-29T20:58:25.582Z,3.01
2023-01-29T21:00:52.306Z,3.05
2023-01-29T21:03:18.871Z,3.05
2023-01-29T21:05:45.512Z,3.01
2023-01-29T21:08:12.229Z,3.02
2023-01-29T21:10:38.823Z,3.03
2023-01-29T21:13:05.424Z,3.07
2023-01-29T21:15:32.045Z,3.07
2023-01-29T21:18:02.513Z,3.04
2023-01-29T21:20:29.065Z,3.10
2023-01-29T21:22:55.578Z,3.08
2023-01-29T21:25:23.097Z,3.09
2023-01-29T21:27:50.438Z,3.10
2023-01-29T21:30:18.184Z,3.10
2023-01-29T21:32:44.927Z,3.17
2023-01-29T21:35:11.517Z,3.15
2023-01-29T21:37:38.092Z,3.17
2023-01-29T21:40:06.360Z,3.17
2023-01-29T21:42:51.430Z,3.19
2023-01-29T21:45:18.673Z,3.21
2023-01-29T21:47:45.266Z,3.23
2023-01-29T21:50:12.315Z,3.26
2023-01-29T21:52:38.850Z,3.32
2023-01-29T21:55:06.137Z,3.32
2023-01-29T21:57:32.719Z,3.32
2023-01-29T21:59:59.369Z,3.39
2023-01-29T22:02:27.537Z,3.36
2023-01-29T22:05:05.306Z,3.30
2023-01-29T22:07:43.116Z,3.45
2023-01-29T22:10:10.397Z,3.46
2023-01-29T22:12:37.327Z,3.48
2023-01-29T22:15:04.821Z,3.49
2023-01-29T22:17:31.372Z,3.47
2023-01-29T22:19:57.919Z,3.48
2023-01-29T22:22:24.393Z,3.45
2023-01-29T22:24:52.482Z,3.44
2023-01-29T22:27:19.038Z,3.47
2023-01-29T22:29:45.581Z,3.46
2023-01-29T22:32:13.187Z,3.47
2023-01-29T22:34:39.809Z,3.47
2023-01-29T22:37:06.399Z,3.48
2023-01-29T22:39:32.943Z,3.50
2023-01-29T22:41:59.485Z,3.53
2023-01-29T22:44:26.021Z,3.50
2023-01-29T22:46:52.573Z,3.49
2023-01-29T22:49:19.499Z,3.51
2023-01-29T22:51:47.415Z,3.56
2023-01-29T22:54:15.462Z,3.54
2023-01-29T22:56:42.024Z,3.63
2023-01-29T22:59:09.988Z,3.59
2023-01-29T23:01:36.613Z,3.61
2023-01-29T23:04:03.140Z,3.61
2023-01-29T23:06:29.706Z,3.66
2023-01-29T23:08:56.247Z,3.62
2023-01-29T23:11:23.584Z,3.61
2023-01-29T23:13:52.715Z,3.53
2023-01-29T23:16:21.701Z,3.58
2023-01-29T23:18:53.030Z,3.64
2023-01-29T23:21:21.248Z,3.68
2023-01-29T23:23:48.451Z,3.66
2023-01-29T23:26:33.871Z,3.68
2023-01-29T23:29:00.641Z,3.68
2023-01-29T23:31:27.264Z,3.73
2023-01-29T23:33:53.822Z,3.75
2023-01-29T23:36:20.395Z,3.73
2023-01-29T23:38:46.957Z,3.82
2023-01-29T23:41:13.767Z,3.79
2023-01-29T23:43:40.379Z,3.82
2023-01-29T23:46:07.190Z,3.82
2023-01-29T23:48:33.770Z,3.92
2023-01-29T23:51:00.338Z,3.87
2023-01-29T23:53:27.070Z,3.91
2023-01-29T23:55:58.786Z,3.96
2023-01-29T23:58:26.106Z,3.98
